Date,TemperatureHighF,TemperatureAvgF,TemperatureLowF,DewpointHighF,DewpointAvgF,DewpointLowF,HumidityHigh,HumidityAvg,HumidityLow,PressureMaxIn,PressureMinIn,WindSpeedMaxMPH,WindSpeedAvgMPH,GustSpeedMaxMPH,PrecipitationSumIn
2013-1-1,47,43,38,44,39,33,95,86,68,30.11,29.92,9,1,13,0.21
2013-1-2,46,41,36,44,39,34,95,90,73,30.22,29.97,10,1,10,0.15
2013-1-3,42,36,25,37,34,24,95,90,75,30.28,30.19,5,1,6,0.01
2013-1-4,49,35,21,30,23,19,94,68,35,30.34,30.21,9,2,17,0.01
2013-1-5,52,37,22,34,26,20,91,68,37,30.42,30.26,8,1,10,0.00
2013-1-6,54,44,35,41,37,32,92,78,56,30.26,30.07,5,1,11,0.03
2013-1-7,52,38,26,33,30,24,93,76,47,30.47,30.21,7,1,14,0.00
2013-1-8,52,34,22,39,30,20,94,86,62,30.51,30.41,4,0,7,0.00
2013-1-9,68,48,30,55,43,28,95,83,61,30.46,30.35,8,1,15,0.00
2013-1-10,60,46,34,45,39,33,96,80,52,30.57,30.43,7,1,10,0.00
2013-1-11,45,42,35,44,40,33,96,93,79,30.47,30.17,6,1,7,0.29
2013-1-12,70,56,46,63,54,45,97,92,76,30.18,30.11,4,0,6,0.00
2013-1-13,74,63,52,64,58,50,97,86,67,30.13,30.03,12,2,14,0.01
2013-1-14,66,60,46,62,58,45,95,92,82,30.25,30.05,10,2,18,1.37
2013-1-15,46,42,40,45,41,39,95,95,93,30.30,30.13,9,3,16,0.72
2013-1-16,48,43,39,47,42,38,96,95,95,30.13,29.98,8,2,11,0.40
2013-1-17,48,45,33,47,44,32,96,95,93,30.19,29.98,13,3,22,1.18
2013-1-18,43,35,27,35,30,25,96,84,50,30.56,30.19,10,1,10,0.43
2013-1-19,52,35,22,34,28,21,95,78,47,30.52,30.15,10,1,14,0.00
2013-1-20,61,45,30,38,32,28,92,64,34,30.14,29.99,7,2,16,0.00
2013-1-21,59,41,24,35,26,14,95,62,31,30.11,29.86,10,2,16,0.01
2013-1-22,39,30,23,13,5,-1,52,35,24,30.32,29.99,13,4,19,0.00
2013-1-23,38,30,23,22,9,0,81,44,24,30.39,30.08,13,3,19,0.00
2013-1-24,34,29,16,24,12,1,86,54,28,30.57,30.00,16,4,29,0.00
2013-1-25,27,21,14,24,17,9,90,83,51,30.56,30.14,9,2,12,0.00
2013-1-26,40,29,18,29,24,16,94,83,58,30.45,30.12,6,1,11,0.08
2013-1-27,40,31,23,28,25,21,94,80,60,30.65,30.45,7,1,9,0.03
2013-1-28,54,43,28,44,37,26,94,81,59,30.52,30.22,12,3,17,0.02
2013-1-29,74,57,45,55,49,43,93,78,49,30.22,30.04,7,2,13,0.00
2013-1-30,72,67,52,65,62,49,94,83,73,30.04,29.36,22,10,34,0.63
2013-1-31,62,45,30,60,31,20,93,60,38,29.99,29.38,16,4,25,0.21
2013-2-1,38,32,22,30,12,-100,78,48,33,30.43,29.86,19,-6,29,0.00
2013-2-2,39,29,16,25,15,-100,90,60,36,30.43,0.00,11,-9,15,0.00
2013-2-3,46,38,30,32,27,21,91,64,47,30.05,29.86,10,2,16,0.00
2013-2-4,45,36,22,29,23,19,88,61,43,30.18,30.00,11,2,13,0.00
2013-2-5,60,46,35,39,33,29,88,62,44,30.00,29.88,8,2,13,0.00
2013-2-6,57,42,28,38,30,26,93,68,32,30.32,29.98,9,2,17,0.00
2013-2-7,47,39,29,38,33,26,93,79,61,30.40,30.11,7,3,10,0.34
2013-2-8,57,44,37,46,36,26,94,78,54,30.10,29.83,14,6,25,0.30
2013-2-9,50,38,26,27,22,18,87,56,28,30.39,30.06,11,3,21,0.00
2013-2-10,51,36,21,38,24,19,93,67,31,30.53,30.24,12,2,15,0.04
2013-2-11,57,48,40,55,47,38,96,94,91,30.23,29.91,8,1,13,0.15
2013-2-12,61,49,34,51,35,27,94,64,29,30.09,29.94,9,2,20,0.02
2013-2-13,48,45,39,45,43,35,95,92,82,29.98,29.65,7,1,11,0.22
2013-2-14,53,39,28,35,31,27,95,77,45,30.08,29.85,9,1,14,0.01
2013-2-15,62,44,26,41,32,24,94,69,32,30.12,29.93,12,2,16,0.00
2013-2-16,45,36,31,35,32,26,94,87,62,30.01,29.88,8,1,10,0.27
2013-2-17,35,28,19,25,15,9,88,62,35,30.31,29.94,17,4,23,0.00
2013-2-18,52,34,14,27,20,12,92,63,35,30.44,30.24,10,2,17,0.07
2013-2-19,47,42,35,44,35,23,93,78,47,30.23,29.86,8,2,16,0.17
2013-2-20,51,41,32,23,17,10,57,40,19,30.19,29.98,13,4,23,0.00
2013-2-21,51,38,22,27,20,16,85,52,28,30.32,30.15,9,2,15,0.00
2013-2-22,41,38,33,34,28,20,92,68,47,30.39,30.18,7,2,11,0.06
2013-2-23,46,39,36,43,38,34,95,93,89,30.18,29.85,8,1,10,0.17
2013-2-24,60,48,33,42,33,24,96,62,30,30.07,29.82,13,3,18,0.00
2013-2-25,44,35,27,27,25,23,89,67,47,30.26,30.08,10,2,13,0.00
2013-2-26,51,39,27,49,36,24,95,89,74,30.20,29.61,9,3,14,0.60
2013-2-27,58,47,39,44,39,36,96,77,47,29.78,29.63,8,2,15,0.02
2013-2-28,49,42,34,41,31,26,93,67,44,29.86,29.71,13,2,18,0.00
2013-3-1,44,39,29,33,29,25,91,68,54,29.94,29.84,9,2,15,0.00
2013-3-2,43,38,34,30,25,20,81,61,50,29.94,29.86,9,3,16,0.00
2013-3-3,44,35,26,25,20,16,82,56,41,30.00,29.88,14,4,19,0.00
2013-3-4,52,36,22,22,17,14,81,50,22,30.13,30.00,11,3,19,0.00
2013-3-5,51,40,27,42,34,22,95,80,39,30.11,29.64,11,2,16,0.48
2013-3-6,46,39,34,38,34,31,94,82,63,30.07,29.58,17,7,32,0.21
2013-3-7,49,41,30,34,30,26,91,66,49,30.26,30.06,14,3,18,0.00
2013-3-8,56,42,26,32,27,24,92,59,34,30.33,30.19,22,4,22,0.00
2013-3-9,63,44,26,33,29,24,91,61,25,30.38,30.26,7,2,13,0.00
2013-3-10,67,46,26,36,30,24,93,60,24,30.35,30.20,9,2,16,0.00
2013-3-11,67,52,32,54,43,29,91,73,56,30.25,29.93,14,3,22,0.00
2013-3-12,65,58,45,60,49,35,94,75,45,29.98,29.74,15,5,18,0.73
2013-3-13,53,42,29,35,28,19,93,62,38,30.17,29.98,16,4,23,0.00
2013-3-14,52,40,31,25,20,17,76,47,29,30.26,30.13,14,4,24,0.00
2013-3-15,63,43,24,37,29,21,90,61,37,30.19,29.89,14,2,22,0.00
2013-3-16,78,55,36,56,45,33,92,71,37,29.89,29.60,20,2,26,0.02
2013-3-17,54,45,39,52,42,37,94,90,83,30.24,29.82,11,4,16,0.05
2013-3-18,39,38,36,38,36,34,95,94,93,30.26,29.89,8,3,13,0.15
2013-3-19,66,50,36,45,29,11,95,56,19,30.05,29.84,15,4,22,0.00
2013-3-20,57,45,27,30,18,9,78,37,18,30.11,29.79,11,2,18,0.00
2013-3-21,49,38,30,29,17,11,61,44,31,30.01,29.77,18,6,22,0.00
2013-3-22,51,35,20,22,17,12,84,51,26,30.11,29.97,11,2,14,0.00
2013-3-23,58,41,25,34,27,21,88,62,31,30.09,29.93,5,1,10,0.00
2013-3-24,39,35,30,35,32,28,94,89,70,29.96,29.63,11,3,13,0.63
2013-3-25,48,39,33,38,31,25,95,74,47,29.81,29.58,12,3,21,0.08
2013-3-26,49,41,29,31,28,25,88,63,47,30.13,29.81,13,3,21,0.00
2013-3-27,51,39,26,30,26,23,91,63,37,30.25,30.13,12,3,22,0.00
2013-3-28,54,41,25,30,26,23,91,60,34,30.31,30.18,15,4,20,0.00
2013-3-29,62,44,28,35,28,24,88,60,25,30.35,30.17,13,2,14,0.00
2013-3-30,66,48,29,38,32,26,91,60,27,30.27,30.09,6,1,13,0.00
2013-3-31,65,53,42,57,48,36,94,85,71,30.10,29.80,6,1,13,0.26
2013-4-1,71,58,42,55,44,31,96,65,34,30.01,29.81,16,3,22,0.00
2013-4-2,58,45,30,33,28,20,91,55,24,30.18,30.02,12,3,19,0.00
2013-4-3,57,41,27,33,25,17,91,59,21,30.36,30.19,12,2,16,0.00
2013-4-4,48,41,35,36,25,18,93,55,35,30.43,30.00,9,3,15,0.61
2013-4-5,65,48,37,48,40,36,94,77,35,30.03,29.89,11,3,15,0.15
2013-4-6,63,49,32,37,31,23,94,56,25,30.31,30.04,11,2,13,0.00
2013-4-7,72,57,34,45,40,32,91,58,34,30.29,30.08,15,4,22,0.00
2013-4-8,79,62,44,59,50,41,94,67,40,30.15,30.02,13,3,17,0.00
2013-4-9,86,73,59,61,56,53,83,57,37,30.16,30.02,9,2,17,0.00
2013-4-10,88,77,63,63,59,56,81,56,38,30.06,29.89,14,4,19,0.00
2013-4-11,81,73,64,65,61,58,81,67,47,29.95,29.75,14,5,26,0.00
2013-4-12,84,74,64,68,60,42,93,65,35,29.76,29.56,15,5,21,0.46
2013-4-13,73,61,44,48,43,38,87,54,33,29.98,29.76,8,1,15,0.00
2013-4-14,80,62,39,50,43,37,94,57,25,30.12,30.00,8,2,15,0.00
2013-4-15,69,62,55,58,55,48,92,80,50,30.24,30.05,8,3,17,0.12
2013-4-16,77,66,58,62,59,56,92,81,58,30.33,30.18,6,2,12,0.00
2013-4-17,83,67,52,66,60,50,96,79,52,30.21,30.10,5,1,10,0.00
2013-4-18,79,70,63,66,61,58,93,75,50,30.18,30.02,12,4,20,0.00
2013-4-19,79,70,59,69,65,55,94,83,67,30.02,29.69,20,7,35,1.22
2013-4-20,64,54,41,55,39,32,92,61,33,30.29,29.81,11,3,18,0.00
2013-4-21,60,51,39,44,36,30,93,58,45,30.55,30.30,10,4,19,0.00
2013-4-22,61,50,36,44,38,33,91,66,44,30.52,30.31,12,5,17,0.00
2013-4-23,70,55,48,53,47,43,93,76,51,30.34,30.13,10,3,13,0.00
2013-4-24,75,60,41,59,52,40,96,75,51,30.15,29.94,14,3,24,0.00
2013-4-25,70,58,43,57,43,37,92,61,34,30.29,29.99,10,3,19,0.00
2013-4-26,70,54,35,50,41,33,95,67,33,30.46,30.29,8,1,14,0.00
2013-4-27,71,59,47,56,50,46,95,75,45,30.39,30.27,6,1,10,0.00
2013-4-28,59,56,54,56,53,52,95,91,85,30.28,30.10,5,1,13,0.22
2013-4-29,70,59,53,61,56,52,95,90,71,30.10,30.00,5,1,8,0.43
2013-4-30,66,60,53,58,56,51,96,88,74,30.22,30.04,7,2,12,0.00
2013-5-1,67,60,56,58,55,45,94,82,61,30.37,30.21,10,4,17,0.00
2013-5-2,66,59,53,58,52,45,91,79,61,30.38,30.28,13,3,13,0.00
2013-5-3,68,56,41,55,48,40,96,77,47,30.32,30.21,13,3,16,0.00
2013-5-4,59,52,47,53,48,44,90,84,77,30.27,30.14,10,3,14,0.00
2013-5-5,59,54,46,55,49,42,88,83,77,30.17,30.05,11,5,15,0.00
2013-5-6,63,58,55,61,57,53,95,94,88,30.07,29.87,10,4,15,1.11
2013-5-7,68,60,57,61,57,53,96,89,63,29.92,29.86,9,1,11,0.01
2013-5-8,62,56,52,59,54,50,96,94,89,30.02,29.93,2,0,5,0.11
2013-5-9,82,69,48,64,58,47,97,71,45,30.06,29.98,10,1,11,0.01
2013-5-10,83,70,52,67,60,50,96,75,49,30.06,29.92,10,2,15,0.00
2013-5-11,81,73,66,67,64,62,91,73,55,29.93,29.75,9,2,15,0.00
2013-5-12,70,63,44,63,48,37,95,62,33,30.05,29.79,12,2,22,0.02
2013-5-13,65,52,36,46,38,33,95,63,34,30.21,30.05,12,2,18,0.00
2013-5-14,71,54,34,49,40,33,95,64,32,30.27,30.06,9,2,14,0.00
2013-5-15,88,71,52,65,56,45,79,61,45,30.06,29.85,15,3,19,0.00
2013-5-16,86,74,59,66,63,57,94,71,45,29.98,29.88,7,1,14,0.00
2013-5-17,86,73,61,70,64,60,95,76,45,30.12,29.97,6,1,10,0.30
2013-5-18,72,67,61,69,65,60,95,93,88,30.18,30.08,6,2,12,0.22
2013-5-19,77,68,63,71,66,62,96,93,80,30.16,30.06,8,2,17,0.12
2013-5-20,82,71,65,72,68,64,96,91,70,30.11,30.02,8,1,9,0.17
2013-5-21,86,74,64,74,69,63,97,86,62,30.04,29.91,7,2,12,0.01
2013-5-22,84,76,70,73,69,66,94,81,64,30.00,29.88,12,4,17,0.00
2013-5-23,80,71,64,71,67,62,96,87,71,29.94,29.78,7,1,10,0.35
2013-5-24,67,62,52,62,52,37,95,71,40,30.20,29.81,26,3,30,0.01
2013-5-25,73,56,38,49,41,34,95,63,28,30.28,30.14,7,1,17,0.00
2013-5-26,76,59,40,58,47,38,96,70,33,30.29,30.17,9,1,12,0.00
2013-5-27,78,62,44,63,54,43,96,77,52,30.30,30.16,6,1,13,0.00
2013-5-28,85,71,54,70,63,53,96,78,55,30.23,30.12,11,3,18,0.00
2013-5-29,86,75,62,71,66,60,95,74,51,30.21,30.14,10,3,15,0.00
2013-5-30,86,73,59,72,65,57,96,78,53,30.26,30.17,9,2,16,0.00
2013-5-31,86,74,59,72,65,57,96,78,52,30.21,30.09,13,2,15,0.00
2013-6-1,88,77,64,72,67,62,95,73,46,30.11,30.00,13,3,18,0.00
2013-6-2,85,76,69,71,68,66,95,78,60,30.01,29.89,11,4,18,0.33
2013-6-3,83,73,66,74,69,65,96,89,61,29.95,29.83,6,1,8,0.95
2013-6-4,79,68,60,68,64,59,96,86,60,30.11,29.96,5,0,6,0.00
2013-6-5,80,69,56,70,63,55,97,81,59,30.16,30.03,10,1,14,0.01
2013-6-6,75,69,64,71,66,59,96,88,70,30.05,29.80,8,2,16,0.45
2013-6-7,72,70,68,71,68,67,96,95,93,29.85,29.59,9,1,14,0.82
2013-6-8,83,72,64,70,66,63,97,84,56,30.09,29.81,5,1,8,0.31
2013-6-9,87,75,62,74,69,61,97,83,61,30.16,30.05,9,2,13,0.23
2013-6-10,84,74,69,76,71,68,96,90,75,30.10,29.85,18,4,22,0.27
2013-6-11,86,76,68,72,68,66,95,80,56,29.93,29.86,6,1,13,0.00
2013-6-12,90,78,64,78,71,63,95,79,62,29.96,29.84,6,1,12,0.00
2013-6-13,93,77,67,77,71,64,96,83,52,29.84,29.58,13,2,27,0.10
2013-6-14,80,69,57,66,60,55,96,76,49,30.01,29.73,12,2,18,0.01
2013-6-15,84,70,55,68,62,54,96,78,48,30.13,30.02,8,1,10,0.00
2013-6-16,87,75,60,73,67,59,96,78,58,30.09,29.97,10,2,14,0.00
2013-6-17,85,76,70,75,71,68,95,86,66,30.03,29.91,8,1,11,0.01
2013-6-18,81,74,68,75,71,66,95,91,80,29.95,29.77,11,2,11,1.30
2013-6-19,78,70,61,71,66,60,97,88,74,30.14,29.89,7,2,11,0.00
2013-6-20,81,71,60,69,64,59,97,82,57,30.26,30.15,6,1,11,0.01
2013-6-21,82,69,56,66,60,54,96,77,43,30.29,30.21,8,1,11,0.00
2013-6-22,83,72,61,74,68,60,96,87,70,30.25,30.14,8,2,13,0.22
2013-6-23,87,78,68,75,72,67,96,83,61,30.21,30.11,5,1,10,0.00
2013-6-24,87,77,67,78,72,66,96,87,71,30.19,30.07,5,1,10,0.00
2013-6-25,91,80,68,79,73,67,96,81,59,30.10,29.96,6,1,12,0.01
2013-6-26,91,76,69,79,72,68,95,86,60,30.00,29.85,6,1,19,0.26
2013-6-27,87,77,68,76,72,67,96,85,64,29.91,29.69,7,2,13,0.01
2013-6-28,90,79,72,77,73,70,96,82,60,29.73,29.54,11,2,17,0.02
2013-6-29,88,77,68,76,71,67,96,83,57,29.71,29.58,9,2,16,0.06
2013-6-30,86,75,70,76,72,69,96,89,64,29.87,29.71,10,2,16,0.07
2013-7-1,82,75,70,75,72,69,96,89,72,29.99,29.85,9,2,14,0.28
2013-7-2,78,75,73,75,72,71,95,92,89,30.19,29.99,7,3,13,0.88
2013-7-3,82,75,72,77,73,71,96,94,83,30.24,30.15,8,1,15,2.01
2013-7-4,86,77,72,78,74,71,97,89,70,30.28,30.18,9,2,21,0.26
2013-7-5,87,78,70,77,74,68,97,86,66,30.27,30.16,10,2,16,0.01
2013-7-6,87,77,69,77,73,68,96,87,66,30.25,30.11,7,1,11,0.00
2013-7-7,88,78,70,78,73,69,96,86,67,30.18,30.05,13,2,15,0.07
2013-7-8,89,78,71,77,73,70,96,85,60,30.17,30.08,4,1,7,0.04
2013-7-9,87,78,72,79,75,70,97,88,72,30.14,30.04,10,2,14,0.00
2013-7-10,88,78,70,80,74,69,96,87,74,30.09,29.93,9,2,19,0.94
2013-7-11,82,75,72,77,73,70,97,93,83,29.97,29.88,6,1,9,0.38
2013-7-12,74,70,68,72,69,67,96,94,89,30.05,29.87,9,2,13,0.45
2013-7-13,79,74,69,76,71,68,95,93,82,30.21,30.03,7,2,10,0.23
2013-7-14,86,77,72,78,73,70,96,88,66,30.33,30.21,6,2,16,0.05
2013-7-15,91,78,68,79,72,67,97,85,59,30.34,30.24,5,1,7,0.01
2013-7-16,94,76,68,80,73,67,97,90,63,30.27,30.20,7,0,7,0.00
2013-7-17,92,82,73,80,76,72,96,84,59,30.23,30.11,7,0,8,0.00
2013-7-18,94,82,72,81,76,71,97,83,58,30.15,30.02,4,0,5,0.00
2013-7-19,91,82,73,80,76,72,96,83,64,30.08,29.95,11,2,14,0.00
2013-7-20,90,80,74,80,75,72,95,86,68,29.99,29.89,10,2,17,0.22
2013-7-21,90,78,73,81,74,71,96,89,69,29.97,29.89,7,1,10,0.05
2013-7-22,87,77,71,78,74,70,97,89,70,29.96,29.80,7,1,12,0.01
2013-7-23,90,80,73,79,74,72,95,83,59,29.82,29.70,8,1,10,0.00
2013-7-24,90,79,69,78,72,68,97,81,60,29.86,29.72,6,1,13,0.00
2013-7-25,80,72,65,69,66,63,95,82,65,30.05,29.87,7,2,12,0.06
2013-7-26,82,72,61,72,66,60,97,82,60,30.12,30.04,5,1,11,0.01
2013-7-27,82,72,64,74,69,63,97,90,73,30.06,29.94,7,1,11,0.04
2013-7-28,87,76,69,75,71,68,96,85,60,29.99,29.91,6,1,11,0.00
2013-7-29,85,73,62,69,66,60,96,82,44,30.18,29.99,6,1,12,0.14
2013-7-30,85,71,57,74,64,56,97,81,50,30.24,30.15,4,0,6,0.01
2013-7-31,82,72,67,74,69,66,97,91,76,30.16,30.01,4,1,6,1.70
2013-8-1,86,76,68,76,72,67,96,87,69,30.01,29.84,6,1,9,0.21
2013-8-2,87,75,63,76,68,62,97,81,52,30.02,29.91,4,1,9,0.01
2013-8-3,89,76,67,78,72,66,97,87,59,30.01,29.90,5,0,8,0.00
2013-8-4,85,77,67,73,67,60,94,75,45,30.03,29.90,12,3,15,0.00
2013-8-5,80,71,64,70,65,62,96,82,60,30.12,30.01,5,1,9,0.00
2013-8-6,82,74,67,74,68,64,94,84,71,30.06,29.99,10,3,17,0.00
2013-8-7,84,75,68,75,70,66,96,86,65,30.10,30.03,9,2,14,0.00
2013-8-8,85,77,70,76,72,68,96,86,66,30.06,29.99,9,1,10,0.00
2013-8-9,91,80,70,80,75,69,97,84,64,30.03,29.95,11,2,14,0.00
2013-8-10,90,80,74,80,75,72,95,85,66,30.08,30.00,7,1,16,0.02
2013-8-11,88,77,71,79,74,70,97,91,69,30.11,30.01,4,0,8,0.33
2013-8-12,91,79,71,78,74,70,97,84,56,30.05,29.94,6,1,7,0.13
2013-8-13,88,77,70,78,73,69,96,90,68,29.93,29.77,8,1,10,0.02
2013-8-14,76,70,59,72,64,57,95,83,55,30.12,29.82,6,1,10,0.00
2013-8-15,76,64,55,62,58,54,97,82,51,30.19,30.11,6,1,10,0.00
2013-8-16,74,63,52,63,58,51,97,85,65,30.21,30.13,5,1,7,0.01
2013-8-17,72,65,56,68,62,55,97,92,85,30.23,30.16,6,2,11,0.20
2013-8-18,70,68,66,67,66,65,96,94,88,30.23,30.13,6,2,10,0.28
2013-8-19,76,69,65,72,67,64,97,94,85,30.22,30.10,4,0,7,0.18
2013-8-20,82,72,64,75,69,62,97,90,72,30.20,30.12,6,1,8,0.01
2013-8-21,86,74,67,78,72,66,97,91,74,30.23,30.09,4,0,9,0.00
2013-8-22,90,79,70,77,73,69,96,82,58,30.14,29.98,4,1,7,0.01
2013-8-23,86,73,67,77,70,63,97,89,67,30.12,29.94,8,2,25,0.02
2013-8-24,82,70,58,67,62,56,96,79,52,30.33,30.13,10,2,14,0.01
2013-8-25,80,67,55,68,61,54,97,82,50,30.42,30.30,6,1,11,0.01
2013-8-26,84,67,51,68,60,50,97,81,48,30.34,30.11,6,1,9,0.00
2013-8-27,90,75,61,78,70,60,96,85,58,30.11,29.95,5,0,9,0.01
2013-8-28,84,75,66,77,72,65,97,91,76,29.99,29.83,7,1,9,0.00
2013-8-29,85,77,70,75,72,68,96,87,69,30.02,29.84,9,2,13,0.01
2013-8-30,88,74,64,73,69,63,97,85,58,30.08,29.93,5,1,7,0.01
2013-8-31,88,74,63,76,70,62,97,86,67,29.95,29.84,8,2,17,0.01
2013-9-1,90,76,64,80,72,63,97,86,64,29.89,29.77,12,1,16,0.02
2013-9-2,91,78,70,78,72,69,96,84,55,29.87,29.78,5,1,10,0.00
2013-9-3,90,78,69,75,71,68,97,81,52,29.95,29.79,8,1,12,0.00
2013-9-4,86,72,62,69,65,61,96,79,51,30.11,29.95,5,1,11,0.01
2013-9-5,88,70,56,68,62,55,97,78,40,30.11,30.03,6,1,12,0.01
2013-9-6,81,68,57,63,59,56,95,76,47,30.22,30.11,7,2,13,0.00
2013-9-7,83,67,52,67,60,51,97,82,54,30.16,29.98,5,1,11,0.00
2013-9-8,89,72,57,73,65,56,97,80,48,29.99,29.91,6,1,9,0.01
2013-9-9,85,74,66,74,70,65,96,87,68,30.16,29.99,7,2,10,0.00
2013-9-10,86,70,63,75,67,62,97,92,69,30.23,30.15,4,1,9,0.00
2013-9-11,91,76,64,75,69,63,97,81,54,30.19,30.06,10,2,15,0.01
2013-9-12,92,76,66,76,70,65,96,82,56,30.05,29.79,6,1,12,0.00
2013-9-13,84,73,63,68,61,53,96,70,37,29.93,29.76,12,2,18,0.00
2013-9-14,76,63,52,57,52,49,95,71,42,30.16,29.93,10,2,15,0.00
2013-9-15,82,62,45,63,54,44,97,78,45,30.27,30.12,6,1,10,0.01
2013-9-16,84,69,56,69,62,55,97,79,50,30.23,30.09,13,2,17,0.00
2013-9-17,75,62,50,59,54,49,96,78,49,30.38,30.23,9,2,14,0.00
2013-9-18,74,58,43,56,49,42,96,76,40,30.35,30.19,6,1,14,0.01
2013-9-19,76,63,54,65,57,52,95,83,58,30.22,30.10,5,1,7,0.00
2013-9-20,73,67,61,67,64,60,96,90,81,30.10,29.98,7,1,8,0.03
2013-9-21,76,68,62,71,66,61,97,94,83,29.98,29.73,10,2,22,0.36
2013-9-22,78,66,57,63,60,55,97,81,51,29.93,29.75,8,2,13,0.01
2013-9-23,73,62,51,59,53,50,96,76,54,30.10,29.93,8,2,16,0.00
2013-9-24,77,63,51,63,56,50,97,81,55,30.13,29.95,5,1,9,0.00
2013-9-25,73,60,49,66,58,48,98,91,69,29.98,29.89,4,0,9,0.03
2013-9-26,78,65,52,62,58,50,97,80,45,30.07,29.91,8,2,13,0.00
2013-9-27,75,60,46,61,54,45,97,81,55,30.23,30.07,10,2,14,0.01
2013-9-28,70,59,46,58,53,45,98,83,57,30.30,30.21,6,2,14,0.00
2013-9-29,74,58,46,59,52,45,97,82,50,30.21,30.06,8,1,12,0.00
2013-9-30,78,60,45,62,53,44,97,82,49,30.12,30.01,3,0,7,0.01
2013-10-1,85,64,48,66,57,46,97,80,44,30.13,30.02,7,0,9,0.00
2013-10-2,86,67,50,65,58,49,98,78,44,30.14,30.04,5,1,11,0.01
2013-10-3,87,68,53,67,61,52,97,81,46,30.14,30.05,5,0,9,0.00
2013-10-4,88,70,55,70,62,54,97,80,45,30.14,30.04,6,1,10,0.00
2013-10-5,91,72,57,70,64,56,97,78,45,30.12,30.01,6,0,11,0.00
2013-10-6,85,72,57,70,65,56,97,80,50,30.06,29.92,13,3,20,0.00
2013-10-7,75,69,60,71,67,53,95,91,80,30.04,29.82,11,3,17,0.88
2013-10-8,64,59,54,55,51,49,89,77,63,30.26,30.04,15,4,17,0.00
2013-10-9,65,58,54,56,52,50,93,81,72,30.25,30.17,17,6,20,0.04
2013-10-10,62,58,53,60,56,52,95,94,93,30.15,29.97,11,5,16,0.36
2013-10-11,70,63,59,64,60,57,95,90,79,29.99,29.93,6,2,10,0.05
2013-10-12,68,64,61,66,62,59,96,93,90,30.12,29.98,8,3,11,0.07
2013-10-13,66,62,60,64,61,59,96,95,91,30.26,30.11,9,4,17,0.09
2013-10-14,64,60,54,60,58,53,96,93,85,30.30,30.22,10,4,14,0.00
2013-10-15,72,59,46,60,53,45,98,82,46,30.24,30.09,7,1,12,0.01
2013-10-16,72,65,61,65,62,59,96,90,73,30.10,29.95,4,0,7,0.00
2013-10-17,70,64,58,67,62,57,97,94,85,29.97,29.83,5,1,11,0.06
2013-10-18,70,58,47,64,52,46,96,80,51,30.07,29.89,5,1,10,0.00
2013-10-19,60,55,48,59,54,47,97,96,94,30.01,29.85,3,0,4,0.04
2013-10-20,64,52,39,51,43,38,97,73,44,30.15,29.93,10,2,13,0.01
2013-10-21,67,49,32,52,43,31,97,82,48,30.20,30.02,8,1,13,0.00
2013-10-22,70,57,48,58,53,47,97,87,57,30.01,29.82,5,1,8,0.00
2013-10-23,63,54,44,55,46,37,96,77,47,30.02,29.71,10,2,20,0.09
2013-10-24,56,43,31,38,34,30,95,75,43,30.23,30.03,9,1,17,0.00
2013-10-25,55,43,32,37,32,29,95,72,39,30.39,30.22,10,2,15,0.00
2013-10-26,59,42,25,37,31,23,95,69,37,30.39,30.07,9,2,18,0.00
2013-10-27,67,52,35,45,40,33,95,68,39,30.15,30.05,7,1,12,0.00
2013-10-28,70,51,35,54,45,34,96,81,48,30.28,30.14,6,0,10,0.00
2013-10-29,71,59,51,56,53,50,95,81,55,30.37,30.26,7,1,8,0.00
2013-10-30,74,60,51,62,56,50,96,87,62,30.30,30.16,7,0,10,0.01
2013-10-31,73,63,50,63,57,49,97,82,65,30.19,29.88,11,3,22,0.00
2013-11-1,72,68,61,67,64,59,95,88,76,29.87,29.65,18,5,31,0.18
2013-11-2,71,60,52,59,48,36,97,68,37,29.96,29.69,7,1,13,0.01
2013-11-3,63,50,34,42,38,32,93,67,39,30.42,29.96,12,2,16,0.00
2013-11-4,54,42,30,35,32,28,95,68,44,30.61,30.43,13,2,13,0.00
2013-11-5,58,48,34,46,38,31,88,71,58,30.62,30.48,8,2,11,0.00
2013-11-6,72,57,47,56,49,42,95,77,57,30.48,30.13,4,1,10,0.00
2013-11-7,68,55,39,60,46,33,97,75,47,30.14,29.94,9,2,22,0.00
2013-11-8,56,42,28,34,29,26,91,62,36,30.36,30.15,12,2,14,0.00
2013-11-9,56,39,24,36,30,22,95,72,37,30.41,30.18,8,1,14,0.00
2013-11-10,71,54,32,42,33,26,91,51,21,30.28,30.06,11,3,22,0.00
2013-11-11,60,44,27,35,30,24,91,63,33,30.38,30.14,12,1,14,0.00
2013-11-12,56,42,30,40,30,16,82,63,44,30.48,30.05,14,3,21,0.00
2013-11-13,46,31,20,25,19,17,88,63,33,30.58,30.47,13,2,15,0.00
2013-11-14,61,38,19,27,22,17,90,60,20,30.49,30.34,9,1,15,0.00
2013-11-15,62,44,22,47,33,20,94,70,34,30.37,30.23,8,1,15,0.03
2013-11-16,59,54,49,56,52,47,96,94,90,30.31,30.24,4,0,4,0.11
2013-11-17,67,60,53,64,58,52,97,91,80,30.25,29.84,9,2,14,0.03
2013-11-18,71,63,52,66,48,27,96,62,28,30.00,29.79,11,3,18,0.11
2013-11-19,55,48,40,32,30,27,72,51,38,30.37,29.99,11,3,17,0.00
2013-11-20,51,43,36,34,30,27,83,61,45,30.51,30.37,10,3,16,0.00
2013-11-21,55,46,38,45,40,34,91,79,67,30.55,30.43,6,2,8,0.00
2013-11-22,70,58,46,60,52,43,90,81,69,30.43,30.08,14,2,18,0.00
2013-11-23,61,54,40,58,38,19,91,58,34,30.22,30.06,17,4,19,0.00
2013-11-24,40,33,28,18,10,5,49,39,27,30.52,30.22,14,6,24,0.00
2013-11-25,37,37,36,20,18,16,51,47,43,30.43,30.42,2,0,3,0.00
2013-11-26,52,39,33,51,35,17,96,86,43,30.42,29.63,8,2,18,1.47
2013-11-27,46,39,30,45,35,16,96,85,56,30.20,29.55,15,4,23,0.36
2013-11-28,43,30,20,26,21,16,93,70,44,30.52,30.20,10,1,13,0.00
2013-11-29,49,32,19,30,24,17,94,74,43,30.71,30.50,11,2,12,0.00
2013-11-30,46,32,21,31,25,19,93,78,54,30.71,30.43,5,1,9,0.00
2013-12-1,56,33,18,34,26,16,94,78,37,30.42,30.07,4,0,7,0.00
2013-12-2,57,39,23,39,32,21,95,78,47,30.07,29.87,3,0,6,0.01
2013-12-3,58,44,30,49,40,29,95,84,65,30.02,29.90,4,1,8,0.00
2013-12-4,59,52,45,56,51,43,96,94,89,30.10,30.01,7,1,7,0.17
2013-12-5,68,63,52,65,61,51,97,93,88,30.12,30.02,8,3,13,0.19
2013-12-6,78,70,49,66,64,46,93,81,64,30.08,29.92,18,6,25,0.01
2013-12-7,48,44,40,46,40,33,94,85,75,30.51,30.05,9,4,16,0.51
2013-12-8,40,34,32,32,31,27,95,88,70,30.53,30.34,8,2,12,0.12
2013-12-9,44,37,32,43,36,31,96,95,95,30.34,30.08,5,1,9,0.20
2013-12-10,46,38,27,42,36,25,97,90,63,30.34,29.99,11,2,18,0.21
2013-12-11,48,32,19,32,24,18,95,78,39,30.48,30.31,5,1,10,0.00
2013-12-12,42,31,22,25,20,11,94,66,32,30.47,30.32,12,2,16,0.00
2013-12-13,50,33,17,29,22,16,93,70,33,30.42,30.29,7,1,16,0.00
2013-12-14,40,37,32,38,34,29,95,91,78,30.33,29.82,7,2,10,0.57
2013-12-15,51,40,28,43,34,26,96,80,54,30.09,29.72,9,2,18,0.01
2013-12-16,51,36,26,35,30,24,94,81,53,30.20,30.07,5,1,9,0.00
2013-12-17,63,42,27,43,34,25,95,78,40,30.14,29.87,18,2,24,0.15
2013-12-18,47,35,25,35,26,22,94,73,39,30.30,30.05,10,1,13,0.00
2013-12-19,65,43,23,32,27,22,94,61,25,30.32,30.21,9,2,14,0.00
2013-12-20,66,53,36,52,42,30,87,66,48,30.23,30.10,10,2,16,0.00
2013-12-21,72,62,47,65,56,45,94,83,70,30.14,30.00,15,4,18,0.00
2013-12-22,73,67,62,69,64,61,96,89,82,30.08,29.96,19,4,27,0.96
2013-12-23,66,58,44,64,55,36,96,88,70,30.21,29.99,12,4,15,0.48
2013-12-24,45,38,27,36,26,14,83,63,43,30.50,30.20,13,5,18,0.00
2013-12-25,38,26,17,20,16,13,91,69,39,30.61,30.44,6,1,10,0.00
2013-12-26,52,32,16,30,22,14,93,70,39,30.43,30.28,8,1,11,0.00
2013-12-27,52,34,21,28,23,19,93,69,32,30.51,30.39,7,1,11,0.00
2013-12-28,60,39,21,41,28,19,95,71,32,30.44,30.20,8,1,9,0.07
2013-12-29,52,44,35,49,42,34,96,94,87,30.21,29.71,9,2,12,0.92
2013-12-30,52,40,31,46,36,30,97,85,66,30.18,29.94,7,1,10,0.01
2013-12-31,51,39,28,37,29,23,95,73,37,30.38,30.16,8,1,16,0.00
2014-1-1,47,32,23,32,26,22,94,81,48,30.45,30.18,4,0,8,0.00
2014-1-2,46,35,26,40,33,24,96,93,78,30.17,29.64,5,0,10,0.52